createdAt,value
2022-11-22T00:00:42.244Z,97530.91
2022-11-22T00:03:09.795Z,97529.22
2022-11-22T00:05:37.089Z,97522.84
2022-11-22T00:08:04.563Z,97517.25
2022-11-22T00:10:31.449Z,97510.22
2022-11-22T00:12:58.878Z,97523.06
2022-11-22T00:15:26.522Z,97518.94
2022-11-22T00:17:53.334Z,97518.34
2022-11-22T00:20:20.397Z,97525.56
2022-11-22T00:22:47.323Z,97522.25
2022-11-22T00:25:15.233Z,97525.56
2022-11-22T00:27:42.137Z,97521.03
2022-11-22T00:30:09.856Z,97520.63
2022-11-22T00:32:36.785Z,97520.38
2022-11-22T00:35:04.585Z,97518.34
2022-11-22T00:37:31.615Z,97520.63
2022-11-22T00:39:58.439Z,97520.03
2022-11-22T00:42:25.255Z,97526.81
2022-11-22T00:44:52.286Z,97525.75
2022-11-22T00:47:19.202Z,97528.44
2022-11-22T00:49:45.993Z,97524.13
2022-11-22T00:52:12.816Z,97529.50
2022-11-22T00:54:39.636Z,97523.53
2022-11-22T00:57:06.554Z,97531.78
2022-11-22T00:59:33.752Z,97524.41
2022-11-22T01:02:00.555Z,97528.44
2022-11-22T01:04:27.373Z,97525.16
2022-11-22T01:06:54.253Z,97527.69
2022-11-22T01:09:23.202Z,97525.44
2022-11-22T01:11:50.747Z,97521.53
2022-11-22T01:14:18.641Z,97529.38
2022-11-22T01:16:45.920Z,97524.41
2022-11-22T01:19:13.112Z,97527.50
2022-11-22T01:21:40.748Z,97523.00
2022-11-22T01:24:08.001Z,97520.31
2022-11-22T01:26:35.806Z,97516.38
2022-11-22T01:29:02.688Z,97518.66
2022-11-22T01:31:30.296Z,97528.53
2022-11-22T01:33:59.262Z,97528.91
2022-11-22T01:36:27.953Z,97529.16
2022-11-22T01:38:55.412Z,97527.09
2022-11-22T01:41:22.810Z,97524.81
2022-11-22T01:43:50.459Z,97522.34
2022-11-22T01:46:38.689Z,97514.88
2022-11-22T01:49:17.187Z,97527.28
2022-11-22T01:51:50.106Z,97522.13
2022-11-22T01:54:23.145Z,97523.59
2022-11-22T01:56:57.643Z,97528.16
2022-11-22T01:59:29.041Z,97525.69
2022-11-22T02:01:57.190Z,97529.78
2022-11-22T02:04:26.291Z,97530.59
2022-11-22T02:07:04.330Z,97524.81
2022-11-22T02:09:33.097Z,97525.25
2022-11-22T02:12:04.328Z,97526.72
2022-11-22T02:14:32.146Z,97527.31
2022-11-22T02:16:58.904Z,97528.38
2022-11-22T02:20:02.601Z,97526.53
2022-11-22T02:22:50.117Z,97525.09
2022-11-22T02:25:41.755Z,97532.34
2022-11-22T02:28:14.469Z,97536.03
2022-11-22T02:30:42.373Z,97527.44
2022-11-22T02:33:10.157Z,97530.53
2022-11-22T02:35:37.066Z,97533.81
2022-11-22T02:38:23.397Z,97531.97
2022-11-22T02:40:58.561Z,97532.81
2022-11-22T02:43:31.652Z,97528.44
2022-11-22T02:46:12.146Z,97537.31
2022-11-22T02:48:43.660Z,97528.25
2022-11-22T02:51:16.817Z,97530.94
2022-11-22T02:53:44.827Z,97540.66
2022-11-22T02:56:11.825Z,97542.09
2022-11-22T02:58:38.807Z,97537.78
2022-11-22T03:01:05.734Z,97541.06
2022-11-22T03:03:33.448Z,97543.09
2022-11-22T03:06:00.406Z,97535.25
2022-11-22T03:08:27.161Z,97538.16
2022-11-22T03:10:54.126Z,97535.28
2022-11-22T03:13:20.834Z,97543.56
2022-11-22T03:15:48.219Z,97540.31
2022-11-22T03:18:14.962Z,97534.06
2022-11-22T03:20:41.858Z,97533.22
2022-11-22T03:23:08.636Z,97532.00
2022-11-22T03:25:39.530Z,97539.91
2022-11-22T03:28:06.793Z,97539.06
2022-11-22T03:30:34.045Z,97534.53
2022-11-22T03:33:00.798Z,97532.06
2022-11-22T03:35:27.658Z,97531.41
2022-11-22T03:37:54.431Z,97531.25
2022-11-22T03:40:21.437Z,97530.81
2022-11-22T03:42:48.323Z,97529.97
2022-11-22T03:45:15.134Z,97536.78
2022-11-22T03:47:41.870Z,97543.84
2022-11-22T03:50:09.297Z,97535.56
2022-11-22T03:52:36.675Z,97544.47
2022-11-22T03:55:03.567Z,97537.44
2022-11-22T03:57:30.355Z,97541.75
2022-11-22T03:59:57.364Z,97540.31
2022-11-22T04:02:24.136Z,97538.25
2022-11-22T04:04:50.898Z,97528.13
2022-11-22T04:07:17.704Z,97532.88
2022-11-22T04:09:44.517Z,97534.09
2022-11-22T04:12:11.277Z,97525.22
2022-11-22T04:14:56.593Z,97526.44
2022-11-22T04:17:41.421Z,97533.28
2022-11-22T04:20:42.771Z,97537.38
2022-11-22T04:23:11.813Z,97531.59
2022-11-22T04:25:42.641Z,97532.00
2022-11-22T04:28:11.624Z,97535.09
2022-11-22T04:30:57.403Z,97534.28
2022-11-22T04:33:25.207Z,97536.97
2022-11-22T04:35:53.064Z,97546.03
2022-11-22T04:38:20.073Z,97542.34
2022-11-22T04:40:47.630Z,97546.03
2022-11-22T04:43:43.015Z,97546.03
2022-11-22T04:46:15.002Z,97549.75
2022-11-22T04:48:42.436Z,97556.34
2022-11-22T04:51:47.173Z,97553.44
2022-11-22T04:54:13.985Z,97560.03
2022-11-22T04:56:40.749Z,97562.09
2022-11-22T04:59:07.553Z,97562.50
2022-11-22T05:01:34.759Z,97561.28
2022-11-22T05:04:01.543Z,97559.00
2022-11-22T05:06:28.310Z,97564.56
2022-11-22T05:08:55.278Z,97565.84
2022-11-22T05:11:22.057Z,97572.22
2022-11-22T05:13:48.806Z,97569.13
2022-11-22T05:16:16.342Z,97575.31
2022-11-22T05:18:43.352Z,97579.03
2022-11-22T05:21:14.903Z,97572.22
2022-11-22T05:23:56.708Z,97579.03
2022-11-22T05:26:36.290Z,97578.19
2022-11-22T05:29:11.361Z,97577.38
2022-11-22T05:31:40.203Z,97583.56
2022-11-22T05:34:07.510Z,97577.38
2022-11-22T05:36:35.195Z,97582.75
2022-11-22T05:39:02.333Z,97569.94
2022-11-22T05:41:29.388Z,97576.94
2022-11-22T05:43:56.929Z,97581.47
2022-11-22T05:46:27.181Z,97580.47
2022-11-22T05:48:56.560Z,97581.88
2022-11-22T05:51:32.533Z,97584.56
2022-11-22T05:54:02.372Z,97579.59
2022-11-22T05:56:29.143Z,97588.50
2022-11-22T05:58:55.943Z,97593.84
2022-11-22T06:01:24.760Z,97603.78
2022-11-22T06:03:52.435Z,97599.88
2022-11-22T06:06:19.548Z,97610.19
2022-11-22T06:08:48.385Z,97608.13
2022-11-22T06:11:23.630Z,97610.81
2022-11-22T06:13:52.642Z,97607.09
2022-11-22T06:16:19.959Z,97614.34
2022-11-22T06:18:47.838Z,97603.38
2022-11-22T06:21:19.174Z,97610.00
2022-11-22T06:23:46.275Z,97620.31
2022-11-22T06:26:16.649Z,97620.94
2022-11-22T06:28:44.773Z,97616.19
2022-11-22T06:31:24.390Z,97619.72
2022-11-22T06:33:54.590Z,97613.91
2022-11-22T06:36:25.116Z,97619.28
2022-11-22T06:38:52.513Z,97624.84
2022-11-22T06:41:25.476Z,97622.81
2022-11-22T06:43:54.050Z,97620.31
2022-11-22T06:46:24.290Z,97620.13
2022-11-22T06:48:51.802Z,97621.97
2022-11-22T06:51:27.599Z,97620.94
2022-11-22T06:53:55.687Z,97621.97
2022-11-22T06:56:25.175Z,97631.88
2022-11-22T06:58:53.631Z,97634.34
2022-11-22T07:01:23.713Z,97639.72
2022-11-22T07:03:51.610Z,97646.72
2022-11-22T07:06:19.652Z,97643.84
2022-11-22T07:08:47.292Z,97650.47
2022-11-22T07:11:24.671Z,97644.91
2022-11-22T07:13:52.675Z,97650.66
2022-11-22T07:16:21.778Z,97663.91
2022-11-22T07:18:49.702Z,97666.78
2022-11-22T07:21:23.081Z,97659.34
2022-11-22T07:23:52.566Z,97670.88
2022-11-22T07:26:22.380Z,97665.31
2022-11-22T07:28:49.592Z,97673.16
2022-11-22T07:31:18.390Z,97670.06
2022-11-22T07:33:45.715Z,97675.22
2022-11-22T07:36:22.150Z,97673.56
2022-11-22T07:38:50.252Z,97675.00
2022-11-22T07:41:19.811Z,97684.72
2022-11-22T07:43:47.383Z,97686.78
2022-11-22T07:46:34.561Z,97688.25
2022-11-22T07:49:02.941Z,97698.16
2022-11-22T07:51:30.198Z,97697.09
2022-11-22T07:53:58.000Z,97695.47
2022-11-22T07:56:24.888Z,97697.34
2022-11-22T07:58:51.940Z,97700.41
2022-11-22T08:01:20.011Z,97691.16
2022-11-22T08:03:47.584Z,97696.72
2022-11-22T08:06:15.957Z,97700.66
2022-11-22T08:08:44.433Z,97707.28
2022-11-22T08:11:12.352Z,97713.25
2022-11-22T08:13:40.014Z,97713.28
2022-11-22T08:16:14.871Z,97712.44
2022-11-22T08:18:42.466Z,97720.31
2022-11-22T08:21:14.533Z,97714.91
2022-11-22T08:23:43.239Z,97719.06
2022-11-22T08:26:13.670Z,97720.50
2022-11-22T08:28:42.096Z,97713.25
2022-11-22T08:31:19.930Z,97712.25
2022-11-22T08:33:47.998Z,97714.94
2022-11-22T08:36:14.910Z,97714.94
2022-11-22T08:38:42.167Z,97717.63
2022-11-22T08:41:08.977Z,97706.25
2022-11-22T08:43:36.079Z,97715.53
2022-11-22T08:46:03.915Z,97714.28
2022-11-22T08:48:34.946Z,97717.38
2022-11-22T08:51:05.535Z,97716.78
2022-11-22T08:53:36.114Z,97728.53
2022-11-22T08:56:05.430Z,97733.25
2022-11-22T08:58:34.206Z,97734.31
2022-11-22T09:01:07.134Z,97730.16
2022-11-22T09:03:35.912Z,97738.63
2022-11-22T09:09:15.010Z,97739.63
2022-11-22T09:11:44.131Z,97731.75
2022-11-22T09:14:10.886Z,97749.09
2022-11-22T09:16:37.745Z,97741.66
2022-11-22T09:19:04.649Z,97752.59
2022-11-22T09:21:31.406Z,97757.53
2022-11-22T09:23:58.181Z,97758.13
2022-11-22T09:26:25.392Z,97759.38
2022-11-22T09:28:53.445Z,97759.75
2022-11-22T09:31:22.199Z,97760.78
2022-11-22T09:33:50.243Z,97756.41
2022-11-22T09:36:22.765Z,97763.00
2022-11-22T09:38:50.836Z,97766.50
2022-11-22T09:41:17.545Z,97763.78
2022-11-22T09:44:21.014Z,97763.56
2022-11-22T09:47:30.274Z,97763.75
2022-11-22T09:50:19.227Z,97769.13
2022-11-22T09:53:03.898Z,97763.75
2022-11-22T09:55:36.877Z,97773.19
2022-11-22T09:58:31.027Z,97767.38
2022-11-22T10:01:10.841Z,97769.19
2022-11-22T10:03:56.289Z,97772.28
2022-11-22T10:06:29.636Z,97776.63
2022-11-22T10:09:10.978Z,97781.72
2022-11-22T10:11:55.695Z,97789.53
2022-11-22T10:14:47.174Z,97787.84
2022-11-22T10:17:50.762Z,97787.81
2022-11-22T10:20:31.950Z,97790.50
2022-11-22T10:22:59.769Z,97786.50
2022-11-22T10:25:46.022Z,97786.13
2022-11-22T10:28:32.684Z,97797.31
2022-11-22T10:31:17.876Z,97789.91
2022-11-22T10:33:59.663Z,97789.34
2022-11-22T10:36:42.692Z,97793.72
2022-11-22T10:39:49.202Z,97802.25
2022-11-22T10:42:27.372Z,97797.94
2022-11-22T10:45:10.313Z,97805.78
2022-11-22T10:47:45.067Z,97816.13
2022-11-22T10:50:30.905Z,97816.53
2022-11-22T10:53:05.765Z,97820.47
2022-11-22T10:55:44.796Z,97814.84
2022-11-22T10:58:32.265Z,97815.84
2022-11-22T11:01:35.172Z,97822.47
2022-11-22T11:04:05.672Z,97820.13
2022-11-22T11:07:11.082Z,97823.38
2022-11-22T11:12:43.264Z,97824.72
2022-11-22T11:15:38.438Z,97825.28
2022-11-22T11:18:13.921Z,97827.91
2022-11-22T11:20:43.887Z,97833.84
2022-11-22T11:23:15.727Z,97832.94
2022-11-22T11:25:46.124Z,97833.66
2022-11-22T11:28:23.377Z,97826.94
2022-11-22T11:31:08.548Z,97812.44
2022-11-22T11:33:38.937Z,97815.72
2022-11-22T11:36:22.508Z,97816.16
2022-11-22T11:38:56.700Z,97815.28
2022-11-22T11:41:32.705Z,97813.63
2022-11-22T11:44:02.875Z,97817.81
2022-11-22T11:46:45.729Z,97825.69
2022-11-22T11:49:25.283Z,97832.28
2022-11-22T11:52:02.167Z,97828.53
2022-11-22T11:54:43.820Z,97835.81
2022-11-22T11:57:21.970Z,97836.41
2022-11-22T11:59:54.066Z,97844.31
2022-11-22T12:02:40.889Z,97856.16
2022-11-22T12:05:13.630Z,97867.75
2022-11-22T12:07:41.994Z,97867.38
2022-11-22T12:10:39.752Z,97867.00
2022-11-22T12:13:27.757Z,97867.59
2022-11-22T12:16:01.102Z,97882.94
2022-11-22T12:18:27.865Z,97886.69
2022-11-22T12:21:03.279Z,97897.47
2022-11-22T12:24:34.919Z,97897.09
2022-11-22T12:26:56.468Z,97896.88
2022-11-22T12:29:23.902Z,97892.31
2022-11-22T12:32:13.306Z,97895.03
2022-11-22T12:35:12.168Z,97899.13
2022-11-22T12:37:48.023Z,97903.63
2022-11-22T12:40:26.789Z,97899.72
2022-11-22T12:42:59.754Z,97894.94
2022-11-22T12:45:41.180Z,97902.38
2022-11-22T12:48:21.598Z,97904.84
2022-11-22T12:51:01.315Z,97907.09
2022-11-22T12:53:31.747Z,97906.66
2022-11-22T12:56:09.948Z,97908.16
2022-11-22T12:58:52.486Z,97912.06
2022-11-22T13:01:36.239Z,97913.53
2022-11-22T13:04:09.452Z,97919.66
2022-11-22T13:07:02.502Z,97913.53
2022-11-22T13:09:37.238Z,97921.78
2022-11-22T13:12:21.100Z,97924.03
2022-11-22T13:14:56.350Z,97918.44
2022-11-22T13:17:25.228Z,97920.44
2022-11-22T13:20:07.175Z,97920.44
2022-11-22T13:23:02.157Z,97922.28
2022-11-22T13:26:14.697Z,97921.03
2022-11-22T13:28:44.605Z,97933.06
2022-11-22T13:31:11.677Z,97929.91
2022-11-22T13:33:43.642Z,97923.25
2022-11-22T13:36:29.608Z,97935.31
2022-11-22T13:38:59.382Z,97930.28
2022-11-22T13:41:36.734Z,97933.81
2022-11-22T13:44:39.536Z,97932.38
2022-11-22T13:47:24.606Z,97929.25
2022-11-22T13:49:54.029Z,97931.06
2022-11-22T13:52:20.885Z,97920.28
2022-11-22T13:54:47.725Z,97931.88
2022-11-22T13:57:38.577Z,97932.69
2022-11-22T14:00:14.509Z,97941.63
2022-11-22T14:03:12.018Z,97947.47
2022-11-22T14:05:42.044Z,97945.75
2022-11-22T14:08:42.467Z,97950.31
2022-11-22T14:11:49.006Z,97960.44
2022-11-22T14:14:42.167Z,97961.41
2022-11-22T14:17:37.105Z,97954.59
2022-11-22T14:20:20.409Z,97958.66
2022-11-22T14:23:34.468Z,97966.38
2022-11-22T14:26:03.843Z,97954.13
2022-11-22T14:29:49.405Z,97963.94
2022-11-22T14:32:23.093Z,97953.63
2022-11-22T14:35:04.823Z,97959.91
2022-11-22T14:37:32.003Z,97956.38
2022-11-22T14:40:08.745Z,97960.56
2022-11-22T14:42:43.608Z,97968.66
2022-11-22T14:45:10.419Z,97964.06
2022-11-22T14:47:58.670Z,97974.25
2022-11-22T14:50:37.439Z,97974.50
2022-11-22T14:53:30.261Z,97979.91
2022-11-22T14:56:16.367Z,97971.34
2022-11-22T14:59:36.879Z,97970.09
2022-11-22T15:02:55.464Z,97969.84
2022-11-22T15:09:20.088Z,97972.16
2022-11-22T15:09:46.973Z,97972.63
2022-11-22T15:12:40.773Z,97979.06
2022-11-22T15:57:35.811Z,98040.06
2022-11-22T16:00:03.511Z,98039.63
2022-11-22T16:02:32.464Z,98028.00
2022-11-22T16:06:05.998Z,98027.19
2022-11-22T16:07:57.018Z,98029.28
2022-11-22T16:10:39.194Z,98038.03
2022-11-22T16:13:21.183Z,98038.03
2022-11-22T16:16:27.159Z,98038.44
2022-11-22T16:18:54.576Z,98040.94
2022-11-22T16:21:29.047Z,98032.22
2022-11-22T16:24:19.452Z,98038.06
2022-11-22T16:26:56.244Z,98032.66
2022-11-22T16:29:33.020Z,98030.19
2022-11-22T16:32:06.722Z,98035.78
2022-11-22T16:34:33.538Z,98036.84
2022-11-22T16:37:00.510Z,98032.47
2022-11-22T16:39:27.728Z,98037.25
2022-11-22T16:41:54.562Z,98047.03
2022-11-22T16:44:22.145Z,98032.72
2022-11-22T16:46:48.953Z,98032.13
2022-11-22T16:49:18.917Z,98036.50
2022-11-22T16:51:50.289Z,98044.19
2022-11-22T16:54:21.614Z,98045.66
2022-11-22T16:56:48.449Z,98043.84
2022-11-22T16:59:15.525Z,98053.34
2022-11-22T17:01:43.830Z,98068.09
2022-11-22T17:04:23.487Z,98059.59
2022-11-22T17:06:51.389Z,98060.22
2022-11-22T17:09:18.243Z,98060.88
2022-11-22T17:11:45.724Z,98068.09
2022-11-22T17:14:15.672Z,98068.53
2022-11-22T17:16:43.287Z,98083.88
2022-11-22T17:19:30.251Z,98082.63
2022-11-22T17:21:57.230Z,98090.09
2022-11-22T17:24:24.100Z,98093.00
2022-11-22T17:26:50.925Z,98084.75
2022-11-22T17:29:43.269Z,98089.50
2022-11-22T17:32:05.244Z,98099.25
2022-11-22T17:34:32.392Z,98090.56
2022-11-22T17:36:59.341Z,98097.00
2022-11-22T17:39:26.114Z,98092.06
2022-11-22T17:41:52.880Z,98080.66
2022-11-22T17:44:19.779Z,98086.47
2022-11-22T17:46:47.354Z,98097.44
2022-11-22T17:49:16.354Z,98102.19
2022-11-22T17:51:43.371Z,98095.97
2022-11-22T17:54:10.319Z,98096.34
2022-11-22T17:56:37.806Z,98096.13
2022-11-22T17:59:05.477Z,98099.84
2022-11-22T18:01:32.492Z,98111.22
2022-11-22T18:03:59.362Z,98112.06
2022-11-22T18:06:29.636Z,98133.31
2022-11-22T18:08:56.416Z,98123.59
2022-11-22T18:11:23.230Z,98125.66
2022-11-22T18:13:49.976Z,98124.84
2022-11-22T18:16:18.288Z,98126.50
2022-11-22T18:18:56.700Z,98123.19
2022-11-22T18:21:24.796Z,98129.78
2022-11-22T18:23:51.674Z,98135.97
2022-11-22T18:31:53.215Z,98129.78
2022-11-22T18:34:22.089Z,98129.34
2022-11-22T18:37:00.836Z,98129.75
2022-11-22T18:39:38.548Z,98134.06
2022-11-22T18:42:12.497Z,98138.00
2022-11-22T18:44:39.311Z,98141.69
2022-11-22T18:47:06.282Z,98147.69
2022-11-22T18:49:33.800Z,98154.09
2022-11-22T18:52:01.126Z,98155.75
2022-11-22T18:54:27.936Z,98153.69
2022-11-22T18:56:54.875Z,98151.63
2022-11-22T18:59:21.737Z,98156.59
2022-11-22T19:01:48.610Z,98149.16
2022-11-22T19:04:16.082Z,98157.47
2022-11-22T19:06:44.429Z,98147.16
2022-11-22T19:09:11.422Z,98152.09
2022-11-22T19:11:38.440Z,98149.03
2022-11-22T19:14:05.996Z,98146.34
2022-11-22T19:16:32.935Z,98146.56
2022-11-22T19:19:00.460Z,98153.38
2022-11-22T19:21:28.899Z,98140.56
2022-11-22T19:23:56.964Z,98142.44
2022-11-22T19:26:27.088Z,98150.31
2022-11-22T19:28:55.987Z,98152.78
2022-11-22T19:31:28.029Z,98152.13
2022-11-22T19:33:55.357Z,98145.56
2022-11-22T19:36:30.750Z,98138.94
2022-11-22T19:38:59.815Z,98133.97
2022-11-22T19:41:27.097Z,98139.31
2022-11-22T19:43:55.973Z,98138.47
2022-11-22T19:46:23.605Z,98133.47
2022-11-22T19:48:52.835Z,98136.56
2022-11-22T19:51:20.035Z,98130.31
2022-11-22T19:53:47.087Z,98121.81
2022-11-22T19:56:17.517Z,98117.47
2022-11-22T19:58:50.298Z,98105.03
2022-11-22T20:01:17.756Z,98109.53
2022-11-22T20:03:45.073Z,98103.31
2022-11-22T20:06:14.473Z,98112.16
2022-11-22T20:08:41.689Z,98107.56
2022-11-22T20:11:15.641Z,98108.34
2022-11-22T20:13:46.241Z,98109.97
2022-11-22T20:16:28.837Z,98104.56
2022-11-22T20:19:05.288Z,98111.16
2022-11-22T20:21:34.456Z,98112.13
2022-11-22T20:24:02.456Z,98111.91
2022-11-22T20:26:31.202Z,98114.34
2022-11-22T20:29:05.025Z,98111.41
2022-11-22T20:31:34.312Z,98109.50
2022-11-22T20:34:02.017Z,98113.63
2022-11-22T20:36:32.613Z,98109.00
2022-11-22T20:39:01.899Z,98109.78
2022-11-22T20:41:32.466Z,98116.56
2022-11-22T20:43:59.225Z,98117.97
2022-11-22T20:46:28.560Z,98123.06
2022-11-22T20:48:56.813Z,98122.00
2022-11-22T20:51:29.039Z,98126.91
2022-11-22T20:53:57.437Z,98121.28
2022-11-22T20:56:25.508Z,98134.25
2022-11-22T20:58:52.671Z,98137.13
2022-11-22T21:01:23.476Z,98132.13
2022-11-22T21:03:51.468Z,98137.03
2022-11-22T21:06:21.348Z,98130.03
2022-11-22T21:08:48.588Z,98139.66
2022-11-22T21:11:22.223Z,98157.78
2022-11-22T21:13:49.706Z,98147.06
2022-11-22T21:16:24.446Z,98148.53
2022-11-22T21:19:05.207Z,98143.81
2022-11-22T21:21:34.908Z,98136.09
2022-11-22T21:24:03.970Z,98139.47
2022-11-22T21:26:32.021Z,98141.19
2022-11-22T21:28:59.898Z,98132.78
2022-11-22T21:31:27.989Z,98131.81
2022-11-22T21:33:54.833Z,98129.97
2022-11-22T21:36:21.871Z,98142.53
2022-11-22T21:38:49.207Z,98144.38
2022-11-22T21:44:07.587Z,98138.38
2022-11-22T21:46:34.427Z,98136.28
2022-11-22T21:49:01.279Z,98135.47
2022-11-22T21:51:28.531Z,98139.16
2022-11-22T21:54:00.091Z,98137.50
2022-11-22T21:56:27.340Z,98139.16
2022-11-22T21:58:54.617Z,98136.28
2022-11-22T22:01:22.523Z,98124.34
2022-11-22T22:03:49.735Z,98129.34
2022-11-22T22:06:16.561Z,98133.47
2022-11-22T22:08:43.369Z,98145.91
2022-11-22T22:11:10.259Z,98143.09
2022-11-22T22:13:37.370Z,98141.50
2022-11-22T22:16:12.849Z,98144.84
2022-11-22T22:18:40.058Z,98146.13
2022-11-22T22:21:09.549Z,98142.69
2022-11-22T22:23:38.734Z,98138.16
2022-11-22T22:26:09.109Z,98130.97
2022-11-22T22:28:38.494Z,98131.34
2022-11-22T22:31:17.514Z,98135.47
2022-11-22T22:33:45.863Z,98135.47
2022-11-22T22:36:13.702Z,98138.56
2022-11-22T22:38:40.961Z,98137.50
2022-11-22T22:41:12.126Z,98131.69
2022-11-22T22:43:42.228Z,98129.63
2022-11-22T22:46:21.266Z,98125.84
2022-11-22T22:48:49.818Z,98126.41
2022-11-22T22:51:30.692Z,98126.16
2022-11-22T22:54:00.695Z,98122.22
2022-11-22T22:56:30.265Z,98120.13
2022-11-22T22:58:58.509Z,98125.06
2022-11-22T23:01:30.114Z,98120.25
2022-11-22T23:03:59.534Z,98123.34
2022-11-22T23:06:29.381Z,98118.97
2022-11-22T23:08:56.869Z,98117.28
2022-11-22T23:11:48.305Z,98121.00
2022-11-22T23:14:19.229Z,98120.13
2022-11-22T23:16:46.349Z,98122.59
2022-11-22T23:19:13.593Z,98124.63
2022-11-22T23:21:40.947Z,98121.09
2022-11-22T23:24:08.864Z,98114.91
2022-11-22T23:26:36.507Z,98109.56
2022-11-22T23:29:04.386Z,98102.94
2022-11-22T23:31:31.700Z,98097.75
2022-11-22T23:34:01.188Z,98101.88
2022-11-22T23:36:29.251Z,98098.66
2022-11-22T23:38:56.257Z,98097.84
2022-11-22T23:41:25.118Z,98092.84
2022-11-22T23:43:54.556Z,98091.16
2022-11-22T23:46:22.546Z,98089.53
2022-11-22T23:48:57.242Z,98088.50
2022-11-22T23:51:25.421Z,98091.56
2022-11-22T23:54:00.924Z,98083.72
2022-11-22T23:56:29.464Z,98084.53
2022-11-22T23:58:59.528Z,98075.69
